sensor_id;sensor_type;location;lat;lon;timestamp;P1;durP1;ratioP1;P2;durP2;ratioP2
1701;SDS011;848;48.354;10.064;2022-12-18T00:00:40;50.60;;;19.55;;
1701;SDS011;848;48.354;10.064;2022-12-18T00:03:07;47.13;;;15.38;;
1701;SDS011;848;48.354;10.064;2022-12-18T00:05:34;62.75;;;22.23;;
1701;SDS011;848;48.354;10.064;2022-12-18T00:08:02;44.55;;;17.83;;
1701;SDS011;848;48.354;10.064;2022-12-18T00:10:29;43.08;;;19.50;;
1701;SDS011;848;48.354;10.064;2022-12-18T00:12:56;44.72;;;18.67;;
1701;SDS011;848;48.354;10.064;2022-12-18T00:15:23;43.30;;;17.20;;
1701;SDS011;848;48.354;10.064;2022-12-18T00:17:52;49.78;;;19.42;;
1701;SDS011;848;48.354;10.064;2022-12-18T00:20:19;53.97;;;20.50;;
1701;SDS011;848;48.354;10.064;2022-12-18T00:22:50;52.92;;;17.08;;
1701;SDS011;848;48.354;10.064;2022-12-18T00:25:18;41.50;;;16.95;;
1701;SDS011;848;48.354;10.064;2022-12-18T00:27:45;49.58;;;19.17;;
1701;SDS011;848;48.354;10.064;2022-12-18T00:30:12;52.83;;;19.27;;
1701;SDS011;848;48.354;10.064;2022-12-18T00:32:39;47.45;;;17.83;;
1701;SDS011;848;48.354;10.064;2022-12-18T00:35:07;44.83;;;16.95;;
1701;SDS011;848;48.354;10.064;2022-12-18T00:37:34;35.15;;;16.92;;
1701;SDS011;848;48.354;10.064;2022-12-18T00:40:01;50.58;;;19.65;;
1701;SDS011;848;48.354;10.064;2022-12-18T00:42:30;52.28;;;18.95;;
1701;SDS011;848;48.354;10.064;2022-12-18T00:45:15;49.67;;;18.90;;
1701;SDS011;848;48.354;10.064;2022-12-18T00:47:42;42.28;;;16.67;;
1701;SDS011;848;48.354;10.064;2022-12-18T00:50:09;44.33;;;16.13;;
1701;SDS011;848;48.354;10.064;2022-12-18T00:52:36;47.72;;;18.05;;
1701;SDS011;848;48.354;10.064;2022-12-18T00:55:03;36.95;;;16.05;;
1701;SDS011;848;48.354;10.064;2022-12-18T00:57:32;41.47;;;17.70;;
1701;SDS011;848;48.354;10.064;2022-12-18T00:59:59;46.50;;;19.58;;
1701;SDS011;848;48.354;10.064;2022-12-18T01:02:25;43.38;;;17.27;;
1701;SDS011;848;48.354;10.064;2022-12-18T01:04:52;49.60;;;17.88;;
1701;SDS011;848;48.354;10.064;2022-12-18T01:07:19;39.38;;;18.98;;
1701;SDS011;848;48.354;10.064;2022-12-18T01:09:46;51.25;;;17.67;;
1701;SDS011;848;48.354;10.064;2022-12-18T01:12:13;54.00;;;19.63;;
1701;SDS011;848;48.354;10.064;2022-12-18T01:14:41;44.80;;;17.95;;
1701;SDS011;848;48.354;10.064;2022-12-18T01:17:08;42.47;;;17.08;;
1701;SDS011;848;48.354;10.064;2022-12-18T01:19:35;48.20;;;20.30;;
1701;SDS011;848;48.354;10.064;2022-12-18T01:22:02;58.35;;;21.05;;
1701;SDS011;848;48.354;10.064;2022-12-18T01:24:29;54.38;;;20.38;;
1701;SDS011;848;48.354;10.064;2022-12-18T01:26:56;53.58;;;18.05;;
1701;SDS011;848;48.354;10.064;2022-12-18T01:29:23;31.02;;;13.63;;
1701;SDS011;848;48.354;10.064;2022-12-18T01:31:54;40.45;;;18.80;;
1701;SDS011;848;48.354;10.064;2022-12-18T01:34:21;41.97;;;16.10;;
1701;SDS011;848;48.354;10.064;2022-12-18T01:36:48;43.35;;;19.08;;
1701;SDS011;848;48.354;10.064;2022-12-18T01:39:17;49.13;;;19.10;;
1701;SDS011;848;48.354;10.064;2022-12-18T01:41:45;57.53;;;19.45;;
1701;SDS011;848;48.354;10.064;2022-12-18T01:47:35;43.33;;;16.27;;
1701;SDS011;848;48.354;10.064;2022-12-18T01:50:06;42.95;;;18.50;;
1701;SDS011;848;48.354;10.064;2022-12-18T01:52:35;45.35;;;18.90;;
1701;SDS011;848;48.354;10.064;2022-12-18T01:55:03;49.17;;;17.67;;
1701;SDS011;848;48.354;10.064;2022-12-18T01:57:32;51.63;;;21.35;;
1701;SDS011;848;48.354;10.064;2022-12-18T02:00:00;50.17;;;19.23;;
1701;SDS011;848;48.354;10.064;2022-12-18T02:02:30;48.28;;;18.58;;
1701;SDS011;848;48.354;10.064;2022-12-18T02:04:58;49.55;;;17.25;;
1701;SDS011;848;48.354;10.064;2022-12-18T02:07:32;47.63;;;21.33;;
1701;SDS011;848;48.354;10.064;2022-12-18T02:10:13;55.83;;;20.02;;
1701;SDS011;848;48.354;10.064;2022-12-18T02:12:49;52.65;;;21.15;;
1701;SDS011;848;48.354;10.064;2022-12-18T02:15:28;53.33;;;19.50;;
1701;SDS011;848;48.354;10.064;2022-12-18T02:18:05;50.88;;;20.35;;
1701;SDS011;848;48.354;10.064;2022-12-18T02:20:36;50.80;;;20.13;;
1701;SDS011;848;48.354;10.064;2022-12-18T02:23:12;43.58;;;16.65;;
1701;SDS011;848;48.354;10.064;2022-12-18T02:25:57;50.80;;;20.20;;
1701;SDS011;848;48.354;10.064;2022-12-18T02:28:34;46.53;;;19.35;;
1701;SDS011;848;48.354;10.064;2022-12-18T02:31:06;50.00;;;18.92;;
1701;SDS011;848;48.354;10.064;2022-12-18T02:33:41;59.50;;;23.50;;
1701;SDS011;848;48.354;10.064;2022-12-18T02:36:10;55.58;;;20.90;;
1701;SDS011;848;48.354;10.064;2022-12-18T02:38:40;48.65;;;17.00;;
1701;SDS011;848;48.354;10.064;2022-12-18T02:41:10;46.55;;;19.10;;
1701;SDS011;848;48.354;10.064;2022-12-18T02:43:39;46.47;;;18.85;;
1701;SDS011;848;48.354;10.064;2022-12-18T02:46:21;62.50;;;23.27;;
1701;SDS011;848;48.354;10.064;2022-12-18T02:49:01;54.75;;;20.75;;
1701;SDS011;848;48.354;10.064;2022-12-18T02:51:35;50.67;;;20.67;;
1701;SDS011;848;48.354;10.064;2022-12-18T02:54:09;57.22;;;21.63;;
1701;SDS011;848;48.354;10.064;2022-12-18T02:56:43;39.70;;;15.50;;
1701;SDS011;848;48.354;10.064;2022-12-18T02:59:17;51.58;;;18.48;;
1701;SDS011;848;48.354;10.064;2022-12-18T03:01:49;52.53;;;19.15;;
1701;SDS011;848;48.354;10.064;2022-12-18T03:04:22;50.03;;;20.15;;
1701;SDS011;848;48.354;10.064;2022-12-18T03:06:56;48.38;;;20.25;;
1701;SDS011;848;48.354;10.064;2022-12-18T03:09:29;56.40;;;22.05;;
1701;SDS011;848;48.354;10.064;2022-12-18T03:12:02;58.97;;;22.75;;
1701;SDS011;848;48.354;10.064;2022-12-18T03:14:49;65.88;;;20.70;;
1701;SDS011;848;48.354;10.064;2022-12-18T03:17:20;59.75;;;19.15;;
1701;SDS011;848;48.354;10.064;2022-12-18T03:19:49;58.78;;;22.35;;
1701;SDS011;848;48.354;10.064;2022-12-18T03:22:19;50.85;;;18.38;;
1701;SDS011;848;48.354;10.064;2022-12-18T03:24:49;54.22;;;24.02;;
1701;SDS011;848;48.354;10.064;2022-12-18T03:27:18;53.72;;;20.42;;
1701;SDS011;848;48.354;10.064;2022-12-18T03:29:47;67.15;;;23.30;;
1701;SDS011;848;48.354;10.064;2022-12-18T03:32:19;56.80;;;20.80;;
1701;SDS011;848;48.354;10.064;2022-12-18T03:34:53;59.35;;;20.08;;
1701;SDS011;848;48.354;10.064;2022-12-18T03:37:24;54.30;;;21.15;;
1701;SDS011;848;48.354;10.064;2022-12-18T03:39:51;57.20;;;21.02;;
1701;SDS011;848;48.354;10.064;2022-12-18T03:42:20;65.15;;;20.75;;
1701;SDS011;848;48.354;10.064;2022-12-18T03:44:56;53.60;;;19.55;;
1701;SDS011;848;48.354;10.064;2022-12-18T03:47:28;55.65;;;23.80;;
1701;SDS011;848;48.354;10.064;2022-12-18T03:50:02;52.08;;;21.08;;
1701;SDS011;848;48.354;10.064;2022-12-18T03:52:37;51.08;;;20.55;;
1701;SDS011;848;48.354;10.064;2022-12-18T03:55:08;60.42;;;21.38;;
1701;SDS011;848;48.354;10.064;2022-12-18T03:57:38;52.13;;;18.83;;
1701;SDS011;848;48.354;10.064;2022-12-18T04:00:08;47.08;;;19.35;;
1701;SDS011;848;48.354;10.064;2022-12-18T04:02:41;50.15;;;19.55;;
1701;SDS011;848;48.354;10.064;2022-12-18T04:05:11;47.67;;;17.83;;
1701;SDS011;848;48.354;10.064;2022-12-18T04:07:39;48.15;;;18.63;;
1701;SDS011;848;48.354;10.064;2022-12-18T04:10:07;49.55;;;17.40;;
1701;SDS011;848;48.354;10.064;2022-12-18T04:12:41;39.97;;;17.60;;
1701;SDS011;848;48.354;10.064;2022-12-18T04:15:08;45.20;;;18.05;;
1701;SDS011;848;48.354;10.064;2022-12-18T04:17:36;47.00;;;18.27;;
1701;SDS011;848;48.354;10.064;2022-12-18T04:20:04;48.78;;;18.60;;
1701;SDS011;848;48.354;10.064;2022-12-18T04:22:32;46.92;;;21.15;;
1701;SDS011;848;48.354;10.064;2022-12-18T04:24:58;46.92;;;18.08;;
1701;SDS011;848;48.354;10.064;2022-12-18T04:27:25;58.10;;;22.30;;
1701;SDS011;848;48.354;10.064;2022-12-18T04:29:54;62.15;;;22.00;;
1701;SDS011;848;48.354;10.064;2022-12-18T04:32:20;50.38;;;20.08;;
1701;SDS011;848;48.354;10.064;2022-12-18T04:34:50;48.53;;;19.55;;
1701;SDS011;848;48.354;10.064;2022-12-18T04:37:17;51.88;;;19.85;;
1701;SDS011;848;48.354;10.064;2022-12-18T04:39:44;53.65;;;20.80;;
1701;SDS011;848;48.354;10.064;2022-12-18T04:42:10;53.55;;;20.17;;
1701;SDS011;848;48.354;10.064;2022-12-18T04:44:37;54.22;;;20.08;;
1701;SDS011;848;48.354;10.064;2022-12-18T04:47:05;62.80;;;20.98;;
1701;SDS011;848;48.354;10.064;2022-12-18T04:49:33;50.88;;;19.20;;
1701;SDS011;848;48.354;10.064;2022-12-18T04:52:00;53.08;;;19.77;;
1701;SDS011;848;48.354;10.064;2022-12-18T04:54:26;47.20;;;19.42;;
1701;SDS011;848;48.354;10.064;2022-12-18T04:56:53;56.25;;;20.77;;
1701;SDS011;848;48.354;10.064;2022-12-18T04:59:20;53.45;;;21.13;;
1701;SDS011;848;48.354;10.064;2022-12-18T05:01:47;56.22;;;21.00;;
1701;SDS011;848;48.354;10.064;2022-12-18T05:04:15;52.03;;;20.05;;
1701;SDS011;848;48.354;10.064;2022-12-18T05:06:42;48.20;;;18.83;;
1701;SDS011;848;48.354;10.064;2022-12-18T05:09:09;50.13;;;21.20;;
1701;SDS011;848;48.354;10.064;2022-12-18T05:11:36;43.90;;;18.67;;
1701;SDS011;848;48.354;10.064;2022-12-18T05:14:03;51.47;;;19.70;;
1701;SDS011;848;48.354;10.064;2022-12-18T05:16:30;48.25;;;18.35;;
1701;SDS011;848;48.354;10.064;2022-12-18T05:18:56;54.22;;;19.60;;
1701;SDS011;848;48.354;10.064;2022-12-18T05:21:25;57.55;;;21.92;;
1701;SDS011;848;48.354;10.064;2022-12-18T05:23:52;49.08;;;19.95;;
1701;SDS011;848;48.354;10.064;2022-12-18T05:26:19;60.97;;;19.38;;
1701;SDS011;848;48.354;10.064;2022-12-18T05:28:46;58.78;;;20.83;;
1701;SDS011;848;48.354;10.064;2022-12-18T05:31:15;42.28;;;18.13;;
1701;SDS011;848;48.354;10.064;2022-12-18T05:33:42;64.93;;;21.88;;
1701;SDS011;848;48.354;10.064;2022-12-18T05:36:09;56.03;;;20.55;;
1701;SDS011;848;48.354;10.064;2022-12-18T05:38:38;62.50;;;22.27;;
1701;SDS011;848;48.354;10.064;2022-12-18T05:41:05;61.47;;;20.95;;
1701;SDS011;848;48.354;10.064;2022-12-18T05:43:33;60.85;;;21.08;;
1701;SDS011;848;48.354;10.064;2022-12-18T05:46:02;60.25;;;20.90;;
1701;SDS011;848;48.354;10.064;2022-12-18T05:48:30;65.18;;;22.60;;
1701;SDS011;848;48.354;10.064;2022-12-18T05:51:02;62.65;;;23.50;;
1701;SDS011;848;48.354;10.064;2022-12-18T05:53:31;56.88;;;21.42;;
1701;SDS011;848;48.354;10.064;2022-12-18T05:56:00;54.05;;;23.05;;
1701;SDS011;848;48.354;10.064;2022-12-18T05:58:28;63.33;;;22.88;;
1701;SDS011;848;48.354;10.064;2022-12-18T06:00:56;49.35;;;20.73;;
1701;SDS011;848;48.354;10.064;2022-12-18T06:03:23;82.43;;;23.30;;
1701;SDS011;848;48.354;10.064;2022-12-18T06:05:50;56.40;;;24.00;;
1701;SDS011;848;48.354;10.064;2022-12-18T06:08:16;73.15;;;28.67;;
1701;SDS011;848;48.354;10.064;2022-12-18T06:10:49;52.08;;;19.40;;
1701;SDS011;848;48.354;10.064;2022-12-18T06:13:19;67.63;;;21.15;;
1701;SDS011;848;48.354;10.064;2022-12-18T06:15:46;57.05;;;21.00;;
1701;SDS011;848;48.354;10.064;2022-12-18T06:18:13;60.95;;;22.23;;
1701;SDS011;848;48.354;10.064;2022-12-18T06:20:40;61.92;;;23.80;;
1701;SDS011;848;48.354;10.064;2022-12-18T06:23:08;68.30;;;23.70;;
1701;SDS011;848;48.354;10.064;2022-12-18T06:25:37;70.90;;;25.58;;
1701;SDS011;848;48.354;10.064;2022-12-18T06:28:04;75.03;;;22.40;;
1701;SDS011;848;48.354;10.064;2022-12-18T06:30:33;86.88;;;23.92;;
1701;SDS011;848;48.354;10.064;2022-12-18T06:33:01;64.32;;;22.73;;
1701;SDS011;848;48.354;10.064;2022-12-18T06:35:28;62.40;;;23.65;;
1701;SDS011;848;48.354;10.064;2022-12-18T06:37:55;63.53;;;22.17;;
1701;SDS011;848;48.354;10.064;2022-12-18T06:40:21;57.70;;;21.88;;
1701;SDS011;848;48.354;10.064;2022-12-18T06:42:48;58.42;;;22.30;;
1701;SDS011;848;48.354;10.064;2022-12-18T06:45:18;52.38;;;22.08;;
1701;SDS011;848;48.354;10.064;2022-12-18T06:47:46;54.58;;;21.80;;
1701;SDS011;848;48.354;10.064;2022-12-18T06:50:13;77.47;;;22.33;;
1701;SDS011;848;48.354;10.064;2022-12-18T06:52:40;62.33;;;24.10;;
1701;SDS011;848;48.354;10.064;2022-12-18T06:55:09;78.55;;;26.63;;
1701;SDS011;848;48.354;10.064;2022-12-18T06:57:36;58.75;;;21.67;;
1701;SDS011;848;48.354;10.064;2022-12-18T07:00:04;68.85;;;23.55;;
1701;SDS011;848;48.354;10.064;2022-12-18T07:02:33;74.47;;;23.33;;
1701;SDS011;848;48.354;10.064;2022-12-18T07:05:01;66.05;;;25.58;;
1701;SDS011;848;48.354;10.064;2022-12-18T07:07:29;63.38;;;20.50;;
1701;SDS011;848;48.354;10.064;2022-12-18T07:09:56;68.18;;;23.30;;
1701;SDS011;848;48.354;10.064;2022-12-18T07:12:22;48.58;;;22.42;;
1701;SDS011;848;48.354;10.064;2022-12-18T07:14:49;81.38;;;23.92;;
1701;SDS011;848;48.354;10.064;2022-12-18T07:17:18;56.03;;;21.52;;
1701;SDS011;848;48.354;10.064;2022-12-18T07:19:45;63.00;;;22.33;;
1701;SDS011;848;48.354;10.064;2022-12-18T07:22:13;73.80;;;27.83;;
1701;SDS011;848;48.354;10.064;2022-12-18T07:24:40;116.38;;;44.88;;
1701;SDS011;848;48.354;10.064;2022-12-18T07:27:07;69.10;;;26.13;;
1701;SDS011;848;48.354;10.064;2022-12-18T07:29:33;68.63;;;25.90;;
1701;SDS011;848;48.354;10.064;2022-12-18T07:32:00;69.30;;;26.13;;
1701;SDS011;848;48.354;10.064;2022-12-18T07:34:27;63.47;;;24.67;;
1701;SDS011;848;48.354;10.064;2022-12-18T07:36:54;63.17;;;24.35;;
1701;SDS011;848;48.354;10.064;2022-12-18T07:39:22;67.32;;;23.42;;
1701;SDS011;848;48.354;10.064;2022-12-18T07:41:49;71.38;;;23.30;;
1701;SDS011;848;48.354;10.064;2022-12-18T07:44:30;63.67;;;24.95;;
1701;SDS011;848;48.354;10.064;2022-12-18T07:46:57;62.10;;;21.77;;
1701;SDS011;848;48.354;10.064;2022-12-18T07:49:24;74.90;;;23.48;;
1701;SDS011;848;48.354;10.064;2022-12-18T07:51:51;63.60;;;24.17;;
1701;SDS011;848;48.354;10.064;2022-12-18T07:54:19;60.60;;;21.10;;
1701;SDS011;848;48.354;10.064;2022-12-18T07:56:48;59.55;;;23.58;;
1701;SDS011;848;48.354;10.064;2022-12-18T07:59:15;59.47;;;21.05;;
1701;SDS011;848;48.354;10.064;2022-12-18T08:01:42;63.75;;;23.08;;
1701;SDS011;848;48.354;10.064;2022-12-18T08:04:09;60.65;;;20.08;;
1701;SDS011;848;48.354;10.064;2022-12-18T08:06:36;61.40;;;20.63;;
1701;SDS011;848;48.354;10.064;2022-12-18T08:09:03;54.70;;;20.50;;
1701;SDS011;848;48.354;10.064;2022-12-18T08:11:30;54.28;;;22.98;;
1701;SDS011;848;48.354;10.064;2022-12-18T08:13:59;66.35;;;22.42;;
1701;SDS011;848;48.354;10.064;2022-12-18T08:16:26;77.55;;;24.17;;
1701;SDS011;848;48.354;10.064;2022-12-18T08:18:54;49.15;;;20.10;;
1701;SDS011;848;48.354;10.064;2022-12-18T08:21:22;71.50;;;24.80;;
1701;SDS011;848;48.354;10.064;2022-12-18T08:23:50;60.38;;;20.33;;
1701;SDS011;848;48.354;10.064;2022-12-18T08:26:17;59.65;;;21.00;;
1701;SDS011;848;48.354;10.064;2022-12-18T08:28:45;60.40;;;21.40;;
1701;SDS011;848;48.354;10.064;2022-12-18T08:31:13;50.47;;;20.40;;
1701;SDS011;848;48.354;10.064;2022-12-18T08:33:40;54.78;;;20.35;;
1701;SDS011;848;48.354;10.064;2022-12-18T08:36:08;53.30;;;20.02;;
1701;SDS011;848;48.354;10.064;2022-12-18T08:38:36;57.72;;;20.02;;
1701;SDS011;848;48.354;10.064;2022-12-18T08:41:05;64.85;;;24.08;;
1701;SDS011;848;48.354;10.064;2022-12-18T08:43:34;60.63;;;21.67;;
1701;SDS011;848;48.354;10.064;2022-12-18T08:46:20;52.38;;;21.05;;
1701;SDS011;848;48.354;10.064;2022-12-18T08:48:49;66.03;;;24.98;;
1701;SDS011;848;48.354;10.064;2022-12-18T08:51:17;52.90;;;20.75;;
1701;SDS011;848;48.354;10.064;2022-12-18T08:53:44;58.53;;;20.33;;
1701;SDS011;848;48.354;10.064;2022-12-18T08:56:12;55.45;;;18.70;;
1701;SDS011;848;48.354;10.064;2022-12-18T08:58:39;59.40;;;19.83;;
1701;SDS011;848;48.354;10.064;2022-12-18T09:01:07;52.80;;;21.52;;
1701;SDS011;848;48.354;10.064;2022-12-18T09:03:37;60.25;;;21.05;;
1701;SDS011;848;48.354;10.064;2022-12-18T09:06:04;63.38;;;21.48;;
1701;SDS011;848;48.354;10.064;2022-12-18T09:08:32;61.28;;;20.75;;
1701;SDS011;848;48.354;10.064;2022-12-18T09:11:00;50.03;;;20.75;;
1701;SDS011;848;48.354;10.064;2022-12-18T09:13:28;49.33;;;20.23;;
1701;SDS011;848;48.354;10.064;2022-12-18T09:15:55;56.75;;;21.92;;
1701;SDS011;848;48.354;10.064;2022-12-18T09:18:22;52.45;;;20.00;;
1701;SDS011;848;48.354;10.064;2022-12-18T09:20:51;60.03;;;25.42;;
1701;SDS011;848;48.354;10.064;2022-12-18T09:23:18;49.63;;;21.58;;
1701;SDS011;848;48.354;10.064;2022-12-18T09:25:45;43.13;;;18.35;;
1701;SDS011;848;48.354;10.064;2022-12-18T09:28:13;39.83;;;16.90;;
1701;SDS011;848;48.354;10.064;2022-12-18T09:30:42;51.00;;;16.95;;
1701;SDS011;848;48.354;10.064;2022-12-18T09:33:10;51.85;;;18.15;;
1701;SDS011;848;48.354;10.064;2022-12-18T09:35:39;46.60;;;19.00;;
1701;SDS011;848;48.354;10.064;2022-12-18T09:38:09;49.65;;;20.05;;
1701;SDS011;848;48.354;10.064;2022-12-18T09:40:40;51.35;;;19.27;;
1701;SDS011;848;48.354;10.064;2022-12-18T09:43:10;50.15;;;20.20;;
1701;SDS011;848;48.354;10.064;2022-12-18T09:45:42;40.50;;;16.65;;
1701;SDS011;848;48.354;10.064;2022-12-18T09:48:14;46.00;;;17.42;;
1701;SDS011;848;48.354;10.064;2022-12-18T09:50:45;53.70;;;20.38;;
1701;SDS011;848;48.354;10.064;2022-12-18T09:53:15;43.33;;;17.13;;
1701;SDS011;848;48.354;10.064;2022-12-18T09:55:46;38.65;;;14.95;;
1701;SDS011;848;48.354;10.064;2022-12-18T09:58:15;30.42;;;12.43;;
1701;SDS011;848;48.354;10.064;2022-12-18T10:00:46;33.05;;;13.43;;
1701;SDS011;848;48.354;10.064;2022-12-18T10:03:14;37.85;;;14.15;;
1701;SDS011;848;48.354;10.064;2022-12-18T10:05:43;39.72;;;15.45;;
1701;SDS011;848;48.354;10.064;2022-12-18T10:08:21;33.53;;;13.35;;
1701;SDS011;848;48.354;10.064;2022-12-18T10:10:53;36.17;;;14.20;;
1701;SDS011;848;48.354;10.064;2022-12-18T10:13:24;36.80;;;14.35;;
1701;SDS011;848;48.354;10.064;2022-12-18T10:16:03;54.70;;;19.70;;
1701;SDS011;848;48.354;10.064;2022-12-18T10:18:57;35.67;;;15.32;;
1701;SDS011;848;48.354;10.064;2022-12-18T10:21:30;32.42;;;13.65;;
1701;SDS011;848;48.354;10.064;2022-12-18T10:24:08;28.02;;;13.00;;
1701;SDS011;848;48.354;10.064;2022-12-18T10:26:44;30.27;;;14.52;;
1701;SDS011;848;48.354;10.064;2022-12-18T10:29:13;29.00;;;11.13;;
1701;SDS011;848;48.354;10.064;2022-12-18T10:31:42;35.38;;;14.70;;
1701;SDS011;848;48.354;10.064;2022-12-18T10:34:09;37.42;;;15.60;;
1701;SDS011;848;48.354;10.064;2022-12-18T10:36:40;33.30;;;13.90;;
1701;SDS011;848;48.354;10.064;2022-12-18T10:39:16;44.72;;;18.58;;
1701;SDS011;848;48.354;10.064;2022-12-18T10:41:44;49.92;;;18.15;;
1701;SDS011;848;48.354;10.064;2022-12-18T10:44:14;28.98;;;13.68;;
1701;SDS011;848;48.354;10.064;2022-12-18T10:46:44;30.42;;;12.93;;
1701;SDS011;848;48.354;10.064;2022-12-18T10:49:25;27.45;;;12.18;;
1701;SDS011;848;48.354;10.064;2022-12-18T10:52:04;35.55;;;16.23;;
1701;SDS011;848;48.354;10.064;2022-12-18T10:54:38;34.08;;;12.45;;
1701;SDS011;848;48.354;10.064;2022-12-18T10:57:15;33.17;;;14.13;;
1701;SDS011;848;48.354;10.064;2022-12-18T10:59:55;37.13;;;15.30;;
1701;SDS011;848;48.354;10.064;2022-12-18T11:02:28;31.08;;;14.80;;
1701;SDS011;848;48.354;10.064;2022-12-18T11:05:01;33.67;;;13.10;;
1701;SDS011;848;48.354;10.064;2022-12-18T11:07:44;30.58;;;12.05;;
1701;SDS011;848;48.354;10.064;2022-12-18T11:10:17;31.00;;;11.35;;
1701;SDS011;848;48.354;10.064;2022-12-18T11:12:45;33.13;;;12.40;;
1701;SDS011;848;48.354;10.064;2022-12-18T11:15:15;27.20;;;11.68;;
1701;SDS011;848;48.354;10.064;2022-12-18T11:17:45;31.98;;;13.93;;
1701;SDS011;848;48.354;10.064;2022-12-18T11:20:27;26.70;;;11.68;;
1701;SDS011;848;48.354;10.064;2022-12-18T11:22:58;27.25;;;11.90;;
1701;SDS011;848;48.354;10.064;2022-12-18T11:25:27;31.23;;;11.80;;
1701;SDS011;848;48.354;10.064;2022-12-18T11:27:56;26.75;;;11.20;;
1701;SDS011;848;48.354;10.064;2022-12-18T11:30:25;24.42;;;11.52;;
1701;SDS011;848;48.354;10.064;2022-12-18T11:32:55;23.20;;;11.57;;
1701;SDS011;848;48.354;10.064;2022-12-18T11:35:32;33.55;;;15.52;;
1701;SDS011;848;48.354;10.064;2022-12-18T11:38:04;35.45;;;13.35;;
1701;SDS011;848;48.354;10.064;2022-12-18T11:40:40;26.73;;;11.48;;
1701;SDS011;848;48.354;10.064;2022-12-18T11:43:10;38.30;;;16.60;;
1701;SDS011;848;48.354;10.064;2022-12-18T11:45:43;35.53;;;11.68;;
1701;SDS011;848;48.354;10.064;2022-12-18T11:48:16;27.88;;;11.40;;
1701;SDS011;848;48.354;10.064;2022-12-18T11:50:48;27.25;;;11.60;;
1701;SDS011;848;48.354;10.064;2022-12-18T11:53:19;31.23;;;11.50;;
1701;SDS011;848;48.354;10.064;2022-12-18T11:55:49;31.92;;;11.60;;
1701;SDS011;848;48.354;10.064;2022-12-18T11:58:28;28.17;;;10.45;;
1701;SDS011;848;48.354;10.064;2022-12-18T12:01:11;31.55;;;12.20;;
1701;SDS011;848;48.354;10.064;2022-12-18T12:03:49;30.08;;;12.60;;
1701;SDS011;848;48.354;10.064;2022-12-18T12:06:38;32.97;;;13.30;;
1701;SDS011;848;48.354;10.064;2022-12-18T12:09:13;27.02;;;10.40;;
1701;SDS011;848;48.354;10.064;2022-12-18T12:11:50;25.77;;;10.40;;
1701;SDS011;848;48.354;10.064;2022-12-18T12:14:33;24.27;;;10.18;;
1701;SDS011;848;48.354;10.064;2022-12-18T12:17:11;29.85;;;10.98;;
1701;SDS011;848;48.354;10.064;2022-12-18T12:19:44;37.85;;;12.95;;
1701;SDS011;848;48.354;10.064;2022-12-18T12:22:20;28.85;;;14.13;;
1701;SDS011;848;48.354;10.064;2022-12-18T12:24:57;36.05;;;13.02;;
1701;SDS011;848;48.354;10.064;2022-12-18T12:27:38;67.55;;;23.23;;
1701;SDS011;848;48.354;10.064;2022-12-18T12:30:17;49.63;;;16.95;;
1701;SDS011;848;48.354;10.064;2022-12-18T12:32:54;38.00;;;17.20;;
1701;SDS011;848;48.354;10.064;2022-12-18T12:35:40;43.38;;;16.00;;
1701;SDS011;848;48.354;10.064;2022-12-18T12:38:14;33.78;;;13.07;;
1701;SDS011;848;48.354;10.064;2022-12-18T12:40:48;32.03;;;13.02;;
1701;SDS011;848;48.354;10.064;2022-12-18T12:43:24;30.15;;;11.52;;
1701;SDS011;848;48.354;10.064;2022-12-18T12:45:55;29.05;;;13.55;;
1701;SDS011;848;48.354;10.064;2022-12-18T12:48:31;28.02;;;12.20;;
1701;SDS011;848;48.354;10.064;2022-12-18T12:51:04;25.25;;;11.50;;
1701;SDS011;848;48.354;10.064;2022-12-18T12:53:37;34.17;;;11.82;;
1701;SDS011;848;48.354;10.064;2022-12-18T12:56:06;25.35;;;10.55;;
1701;SDS011;848;48.354;10.064;2022-12-18T12:58:38;30.25;;;12.07;;
1701;SDS011;848;48.354;10.064;2022-12-18T13:01:16;28.92;;;11.68;;
1701;SDS011;848;48.354;10.064;2022-12-18T13:03:52;30.92;;;12.13;;
1701;SDS011;848;48.354;10.064;2022-12-18T13:06:27;27.38;;;11.40;;
1701;SDS011;848;48.354;10.064;2022-12-18T13:09:01;26.35;;;10.48;;
1701;SDS011;848;48.354;10.064;2022-12-18T13:11:34;31.77;;;12.43;;
1701;SDS011;848;48.354;10.064;2022-12-18T13:14:34;32.80;;;12.60;;
1701;SDS011;848;48.354;10.064;2022-12-18T13:20:04;30.05;;;11.73;;
1701;SDS011;848;48.354;10.064;2022-12-18T13:22:36;25.45;;;12.20;;
1701;SDS011;848;48.354;10.064;2022-12-18T13:28:00;28.20;;;11.55;;
1701;SDS011;848;48.354;10.064;2022-12-18T13:30:45;35.35;;;12.30;;
1701;SDS011;848;48.354;10.064;2022-12-18T13:39:10;26.00;;;11.43;;
1701;SDS011;848;48.354;10.064;2022-12-18T13:41:48;26.75;;;11.52;;
1701;SDS011;848;48.354;10.064;2022-12-18T13:44:23;29.90;;;11.15;;
1701;SDS011;848;48.354;10.064;2022-12-18T13:46:56;29.73;;;12.45;;
1701;SDS011;848;48.354;10.064;2022-12-18T13:49:24;26.35;;;11.00;;
1701;SDS011;848;48.354;10.064;2022-12-18T13:51:55;27.30;;;10.35;;
1701;SDS011;848;48.354;10.064;2022-12-18T13:54:25;29.55;;;11.20;;
1701;SDS011;848;48.354;10.064;2022-12-18T13:56:58;27.20;;;12.35;;
1701;SDS011;848;48.354;10.064;2022-12-18T13:59:26;37.33;;;16.25;;
1701;SDS011;848;48.354;10.064;2022-12-18T14:02:04;26.83;;;12.27;;
1701;SDS011;848;48.354;10.064;2022-12-18T14:04:38;34.70;;;13.13;;
1701;SDS011;848;48.354;10.064;2022-12-18T14:07:06;34.70;;;14.05;;
1701;SDS011;848;48.354;10.064;2022-12-18T14:09:39;38.00;;;17.45;;
1701;SDS011;848;48.354;10.064;2022-12-18T14:12:12;33.70;;;15.43;;
1701;SDS011;848;48.354;10.064;2022-12-18T14:14:59;29.50;;;11.48;;
1701;SDS011;848;48.354;10.064;2022-12-18T14:17:28;26.38;;;12.25;;
1701;SDS011;848;48.354;10.064;2022-12-18T14:19:57;28.15;;;10.93;;
1701;SDS011;848;48.354;10.064;2022-12-18T14:22:25;31.67;;;10.77;;
1701;SDS011;848;48.354;10.064;2022-12-18T14:27:46;30.30;;;12.02;;
1701;SDS011;848;48.354;10.064;2022-12-18T14:30:26;29.50;;;10.60;;
1701;SDS011;848;48.354;10.064;2022-12-18T14:33:08;31.80;;;13.45;;
1701;SDS011;848;48.354;10.064;2022-12-18T14:35:37;32.67;;;13.65;;
1701;SDS011;848;48.354;10.064;2022-12-18T14:38:15;30.77;;;11.85;;
1701;SDS011;848;48.354;10.064;2022-12-18T14:40:47;28.45;;;10.07;;
1701;SDS011;848;48.354;10.064;2022-12-18T14:43:17;25.33;;;9.23;;
1701;SDS011;848;48.354;10.064;2022-12-18T14:45:45;26.90;;;10.68;;
1701;SDS011;848;48.354;10.064;2022-12-18T14:48:15;29.42;;;10.75;;
1701;SDS011;848;48.354;10.064;2022-12-18T14:50:44;28.88;;;12.35;;
1701;SDS011;848;48.354;10.064;2022-12-18T14:53:20;25.65;;;9.30;;
1701;SDS011;848;48.354;10.064;2022-12-18T14:55:49;24.40;;;10.95;;
1701;SDS011;848;48.354;10.064;2022-12-18T14:58:16;28.63;;;10.32;;
1701;SDS011;848;48.354;10.064;2022-12-18T15:00:44;26.33;;;9.55;;
1701;SDS011;848;48.354;10.064;2022-12-18T15:03:12;28.38;;;10.38;;
1701;SDS011;848;48.354;10.064;2022-12-18T15:05:44;31.48;;;10.95;;
1701;SDS011;848;48.354;10.064;2022-12-18T15:08:26;24.00;;;9.45;;
1701;SDS011;848;48.354;10.064;2022-12-18T15:10:56;25.05;;;10.73;;
1701;SDS011;848;48.354;10.064;2022-12-18T15:13:23;26.33;;;11.48;;
1701;SDS011;848;48.354;10.064;2022-12-18T15:15:51;22.30;;;9.75;;
1701;SDS011;848;48.354;10.064;2022-12-18T15:18:20;22.50;;;8.90;;
1701;SDS011;848;48.354;10.064;2022-12-18T15:20:53;27.58;;;11.60;;
1701;SDS011;848;48.354;10.064;2022-12-18T15:23:26;27.70;;;10.27;;
1701;SDS011;848;48.354;10.064;2022-12-18T15:25:59;22.05;;;8.98;;